Aquasco, Maryland
Current Conditions -  °F | °C
As of 3:58 PM on Tuesday 25 Nov 2014 (Local Time) from KADW Reporting Station
Broken Clouds Broken Clouds  
Wind Chill: 54°   Ceiling: 19000
Heat Index: 54°   Visibility: 10mi
Dew Point: 36°   Wind: 1mph
Humidity: 51%   Direction: 140°SE
Pressure: 30.05"   Gusts: NA
Location:  38.58°N, 76.73°W
Report Text: KADW 252058Z AUTO 14001KT 10SM BKN190 12/02 A3005 RMK AO2 SLP183 T01200020 53004 $
Loading
Personal Weather Stations






























Interactive Weather Map New forecast layout! Learn more

10-Day Weather Forecast

Advertisements
Track Severe Weather on mobile